createdAt,value
2023-09-27T00:01:25.581Z,10.70
2023-09-27T00:05:27.535Z,11.27
2023-09-27T00:09:31.251Z,11.47
2023-09-27T00:13:32.286Z,11.43
2023-09-27T00:17:33.357Z,11.30
2023-09-27T00:21:34.531Z,11.83
2023-09-27T00:25:36.310Z,11.20
2023-09-27T00:29:37.647Z,10.73
2023-09-27T00:33:38.834Z,11.10
2023-09-27T00:37:39.807Z,12.07
2023-09-27T00:41:40.951Z,11.93
2023-09-27T00:45:42.267Z,11.77
2023-09-27T00:49:44.387Z,11.40
2023-09-27T00:53:48.109Z,11.47
2023-09-27T00:57:51.253Z,10.77
2023-09-27T01:01:53.229Z,12.50
2023-09-27T01:05:55.159Z,12.03
2023-09-27T01:09:56.153Z,12.10
2023-09-27T01:13:57.469Z,12.23
2023-09-27T01:18:01.034Z,13.80
2023-09-27T01:22:02.180Z,14.80
2023-09-27T01:26:03.971Z,12.77
2023-09-27T01:30:06.309Z,13.27
2023-09-27T01:34:07.298Z,14.20
2023-09-27T01:38:09.854Z,11.60
2023-09-27T01:42:11.700Z,14.33
2023-09-27T01:46:12.897Z,14.67
2023-09-27T01:50:14.102Z,14.03
2023-09-27T01:54:15.338Z,14.60
2023-09-27T01:58:16.461Z,15.93
2023-09-27T02:02:17.806Z,13.93
2023-09-27T02:06:18.828Z,14.80
2023-09-27T02:10:20.358Z,15.93
2023-09-27T02:14:21.360Z,14.70
2023-09-27T02:18:22.503Z,15.37
2023-09-27T02:22:23.600Z,13.87
2023-09-27T02:26:24.857Z,15.43
2023-09-27T02:30:25.989Z,16.33
2023-09-27T02:34:28.748Z,13.57
2023-09-27T02:38:29.941Z,15.00
2023-09-27T02:42:31.260Z,13.10
2023-09-27T02:46:32.896Z,13.13
2023-09-27T02:50:33.947Z,14.67
2023-09-27T02:54:35.152Z,13.73
2023-09-27T02:58:36.860Z,13.37
2023-09-27T03:02:38.154Z,11.60
2023-09-27T03:06:40.116Z,13.20
2023-09-27T03:10:41.297Z,11.90
2023-09-27T03:14:42.496Z,13.80
2023-09-27T03:18:43.482Z,12.43
2023-09-27T03:22:45.210Z,13.60
2023-09-27T03:26:46.368Z,13.70
2023-09-27T03:30:47.965Z,14.63
2023-09-27T03:34:51.433Z,13.97
2023-09-27T03:38:52.743Z,14.83
2023-09-27T03:42:53.954Z,18.43
2023-09-27T03:46:55.045Z,16.73
2023-09-27T03:50:56.190Z,16.63
2023-09-27T03:54:57.150Z,17.20
2023-09-27T03:58:58.809Z,19.77
2023-09-27T04:03:00.063Z,19.03
2023-09-27T04:07:01.288Z,20.83
2023-09-27T04:11:04.975Z,21.80
2023-09-27T04:15:10.751Z,19.17
2023-09-27T04:19:12.193Z,21.67
2023-09-27T04:23:13.339Z,17.90
2023-09-27T04:27:14.580Z,17.60
2023-09-27T04:31:15.709Z,19.43
2023-09-27T04:35:17.597Z,17.20
2023-09-27T04:39:19.401Z,20.70
2023-09-27T04:43:20.835Z,19.93
2023-09-27T04:47:22.878Z,19.70
2023-09-27T04:51:24.007Z,20.50
2023-09-27T04:55:25.048Z,18.93
2023-09-27T04:59:26.250Z,18.03
2023-09-27T05:03:27.676Z,17.53
2023-09-27T05:07:30.220Z,17.83
2023-09-27T05:11:31.722Z,18.47
2023-09-27T05:15:33.500Z,18.03
2023-09-27T05:19:34.765Z,20.27
2023-09-27T05:23:36.095Z,23.17
2023-09-27T05:27:37.852Z,24.23
2023-09-27T05:31:39.365Z,24.53
2023-09-27T05:35:40.470Z,22.73
2023-09-27T05:39:41.737Z,22.13
2023-09-27T05:43:42.945Z,20.23
2023-09-27T05:47:44.100Z,19.03
2023-09-27T05:51:45.382Z,19.17
2023-09-27T05:55:48.344Z,18.83
2023-09-27T05:59:49.783Z,23.13
2023-09-27T06:03:50.982Z,16.37
2023-09-27T06:07:53.456Z,17.77
2023-09-27T06:11:54.598Z,16.10
2023-09-27T06:15:55.965Z,16.07
2023-09-27T06:19:57.078Z,14.63
2023-09-27T06:23:58.157Z,18.03
2023-09-27T06:28:01.142Z,16.80
2023-09-27T06:32:02.296Z,15.13
2023-09-27T06:36:05.879Z,16.07
2023-09-27T06:40:12.759Z,12.97
2023-09-27T06:44:14.486Z,12.07
2023-09-27T06:48:17.618Z,11.93
2023-09-27T06:52:20.577Z,10.77
2023-09-27T06:56:22.866Z,10.33
2023-09-27T07:00:26.928Z,10.50
2023-09-27T07:04:28.050Z,11.80
2023-09-27T07:08:30.148Z,11.63
2023-09-27T07:12:31.558Z,10.27
2023-09-27T07:16:34.501Z,10.20
2023-09-27T07:20:37.160Z,11.60
2023-09-27T07:24:38.388Z,9.70
2023-09-27T07:28:40.594Z,10.47
2023-09-27T07:32:42.517Z,11.13
2023-09-27T07:36:47.251Z,10.97
2023-09-27T07:40:49.223Z,10.27
2023-09-27T07:44:50.414Z,10.43
2023-09-27T07:48:51.702Z,9.40
2023-09-27T07:53:00.918Z,10.67
2023-09-27T07:57:01.971Z,8.07
2023-09-27T08:01:03.884Z,9.07
2023-09-27T08:05:09.274Z,7.73
2023-09-27T08:09:20.436Z,8.10
2023-09-27T08:13:15.596Z,8.00
2023-09-27T08:17:16.712Z,10.00
2023-09-27T08:21:19.564Z,9.67
2023-09-27T08:25:20.633Z,8.53
2023-09-27T08:29:22.190Z,8.67
2023-09-27T08:33:23.399Z,9.07
2023-09-27T08:37:24.443Z,10.53
2023-09-27T08:41:25.771Z,7.13
2023-09-27T08:45:27.859Z,8.73
2023-09-27T08:49:29.327Z,7.67
2023-09-27T08:53:32.432Z,7.43
2023-09-27T08:57:37.357Z,7.13
2023-09-27T09:01:41.316Z,7.53
2023-09-27T09:05:44.958Z,8.33
2023-09-27T09:09:46.885Z,9.07
2023-09-27T09:14:06.200Z,7.40
2023-09-27T09:18:28.053Z,10.20
2023-09-27T09:22:31.241Z,6.90
2023-09-27T09:26:32.430Z,8.50
2023-09-27T09:30:38.932Z,6.90
2023-09-27T09:34:44.721Z,7.23
2023-09-27T09:38:46.118Z,6.47
2023-09-27T09:42:49.593Z,7.47
2023-09-27T09:46:54.549Z,6.93
2023-09-27T09:50:59.392Z,8.47
2023-09-27T09:55:17.781Z,7.60
2023-09-27T09:59:11.214Z,8.40
2023-09-27T10:03:15.177Z,8.43
2023-09-27T10:07:17.853Z,7.33
2023-09-27T10:11:20.271Z,8.13
2023-09-27T10:15:22.807Z,9.37
2023-09-27T10:19:28.984Z,7.40
2023-09-27T10:23:47.923Z,6.30
2023-09-27T10:28:06.683Z,7.60
2023-09-27T10:32:16.526Z,6.03
2023-09-27T10:36:24.511Z,5.63
2023-09-27T10:40:25.875Z,7.27
2023-09-27T10:44:30.781Z,5.73
2023-09-27T10:48:32.238Z,4.83
2023-09-27T10:52:33.375Z,4.27
2023-09-27T10:56:36.176Z,4.63
2023-09-27T11:00:53.013Z,4.93
2023-09-27T11:04:57.075Z,5.33
2023-09-27T11:09:06.051Z,5.03
2023-09-27T11:13:13.215Z,4.50
2023-09-27T11:17:22.379Z,5.30
2023-09-27T11:21:26.498Z,4.97
2023-09-27T11:25:30.700Z,5.23
2023-09-27T11:29:31.972Z,4.53
2023-09-27T11:33:34.330Z,4.67
2023-09-27T11:37:35.493Z,4.10
2023-09-27T11:41:37.649Z,4.67
2023-09-27T11:45:49.716Z,4.50
2023-09-27T11:49:50.952Z,4.47
2023-09-27T11:57:58.441Z,5.23
2023-09-27T12:02:06.414Z,6.77
2023-09-27T12:06:03.535Z,4.73
2023-09-27T12:10:05.949Z,5.73
2023-09-27T12:14:08.435Z,4.93
2023-09-27T12:18:09.708Z,7.47
2023-09-27T12:22:12.163Z,5.77
2023-09-27T12:26:15.237Z,5.90
2023-09-27T12:30:16.499Z,6.93
2023-09-27T12:34:17.476Z,6.37
2023-09-27T12:38:18.669Z,7.13
2023-09-27T12:42:19.808Z,7.67
2023-09-27T12:46:21.166Z,8.03
2023-09-27T12:50:24.185Z,14.73
2023-09-27T12:54:25.446Z,7.50
2023-09-27T12:58:26.869Z,5.93
2023-09-27T13:02:28.869Z,7.00
2023-09-27T13:06:31.383Z,6.47
2023-09-27T13:10:33.155Z,14.20
2023-09-27T13:14:35.461Z,6.77
2023-09-27T13:18:36.737Z,6.73
2023-09-27T13:22:38.156Z,4.70
2023-09-27T13:26:39.465Z,6.13
2023-09-27T13:30:40.651Z,5.70
2023-09-27T13:34:41.840Z,7.00
2023-09-27T13:38:44.981Z,5.07
2023-09-27T13:42:46.341Z,7.47
2023-09-27T13:46:47.507Z,6.30
2023-09-27T13:50:48.704Z,6.67
2023-09-27T13:54:49.766Z,7.27
2023-09-27T13:58:50.902Z,6.03
2023-09-27T14:02:52.398Z,7.10
2023-09-27T14:06:54.803Z,8.57
2023-09-27T14:10:56.508Z,7.37
2023-09-27T14:14:58.750Z,7.67
2023-09-27T14:19:00.012Z,6.80
2023-09-27T14:23:01.799Z,7.20
2023-09-27T14:27:03.723Z,5.60
2023-09-27T14:31:05.979Z,6.43
2023-09-27T14:35:07.999Z,7.67
2023-09-27T14:39:11.018Z,7.37
2023-09-27T14:43:12.231Z,9.17
2023-09-27T14:47:13.314Z,9.40
2023-09-27T14:51:15.982Z,6.00
2023-09-27T14:55:18.493Z,6.60
2023-09-27T14:59:19.719Z,8.60
2023-09-27T15:03:20.884Z,7.30
2023-09-27T15:07:22.164Z,7.70
2023-09-27T15:11:25.695Z,6.37
2023-09-27T15:15:26.967Z,7.30
2023-09-27T15:19:28.209Z,6.87
2023-09-27T15:23:29.232Z,7.90
2023-09-27T15:27:30.735Z,6.53
2023-09-27T15:31:31.876Z,6.87
2023-09-27T15:35:33.191Z,6.33
2023-09-27T15:39:34.397Z,6.07
2023-09-27T15:43:36.212Z,7.00
2023-09-27T15:47:37.459Z,6.20
2023-09-27T15:51:39.542Z,6.57
2023-09-27T15:55:40.767Z,7.80
2023-09-27T15:59:41.753Z,7.50
2023-09-27T16:03:43.204Z,5.07
2023-09-27T16:07:44.334Z,5.27
2023-09-27T16:11:45.522Z,5.77
2023-09-27T16:15:48.324Z,6.77
2023-09-27T16:19:49.409Z,5.13
2023-09-27T16:23:50.612Z,4.80
2023-09-27T16:27:52.229Z,5.53
2023-09-27T16:31:54.225Z,4.63
2023-09-27T16:35:55.382Z,5.40
2023-09-27T16:39:56.712Z,4.80
2023-09-27T16:43:58.017Z,4.57
2023-09-27T16:47:59.942Z,6.10
2023-09-27T16:52:00.983Z,8.70
2023-09-27T16:56:02.242Z,5.10
2023-09-27T17:00:05.876Z,7.83
2023-09-27T17:04:08.309Z,7.27
2023-09-27T17:08:09.948Z,7.40
2023-09-27T17:12:10.937Z,7.73
2023-09-27T17:16:12.029Z,7.03
2023-09-27T17:20:13.124Z,7.53
2023-09-27T17:24:14.406Z,7.07
2023-09-27T17:28:15.456Z,6.93
2023-09-27T17:32:16.513Z,7.50
2023-09-27T17:36:17.673Z,12.97
2023-09-27T17:40:18.800Z,9.70
2023-09-27T17:44:19.963Z,8.80
2023-09-27T17:48:21.416Z,9.13
2023-09-27T17:52:22.589Z,10.07
2023-09-27T17:56:23.831Z,11.40
2023-09-27T18:00:26.816Z,10.97
2023-09-27T18:04:28.859Z,10.03
2023-09-27T18:08:30.359Z,9.83
2023-09-27T18:12:31.544Z,9.93
2023-09-27T18:16:33.067Z,11.87
2023-09-27T18:20:37.896Z,11.23
2023-09-27T18:24:39.203Z,12.67
2023-09-27T18:28:40.529Z,11.93
2023-09-27T18:32:41.798Z,12.43
2023-09-27T18:36:42.819Z,11.80
2023-09-27T18:40:43.838Z,11.97
2023-09-27T18:44:45.584Z,10.90
2023-09-27T18:48:48.785Z,11.43
2023-09-27T18:52:50.024Z,10.30
2023-09-27T18:56:51.822Z,11.07
2023-09-27T19:00:53.160Z,11.20
2023-09-27T19:04:54.622Z,13.00
2023-09-27T19:08:55.957Z,12.30
2023-09-27T19:12:57.912Z,13.03
2023-09-27T19:16:58.974Z,11.77
2023-09-27T19:21:00.189Z,12.53
2023-09-27T19:25:02.881Z,13.17
2023-09-27T19:29:04.558Z,15.03
2023-09-27T19:33:07.681Z,16.43
2023-09-27T19:37:08.737Z,14.93
2023-09-27T19:41:10.394Z,15.13
2023-09-27T19:45:11.781Z,15.47
2023-09-27T19:49:13.036Z,13.87
2023-09-27T19:53:14.248Z,13.87
2023-09-27T19:57:15.429Z,14.10
2023-09-27T20:01:29.155Z,12.73
2023-09-27T20:05:30.998Z,13.47
2023-09-27T20:09:32.026Z,13.87
2023-09-27T20:13:33.322Z,15.50
2023-09-27T20:17:34.357Z,16.33
2023-09-27T20:21:35.663Z,20.17
2023-09-27T20:25:36.786Z,13.70
2023-09-27T20:29:37.778Z,15.67
2023-09-27T20:33:38.890Z,16.53
2023-09-27T20:37:42.163Z,15.17
2023-09-27T20:41:43.450Z,16.07
2023-09-27T20:45:44.516Z,16.57
2023-09-27T20:49:45.545Z,17.17
2023-09-27T20:53:46.516Z,16.30
2023-09-27T20:57:49.606Z,20.40
2023-09-27T21:01:51.192Z,16.97
2023-09-27T21:05:52.204Z,17.93
2023-09-27T21:09:53.408Z,16.93
2023-09-27T21:13:57.987Z,15.63
2023-09-27T21:17:59.259Z,14.93
2023-09-27T21:22:00.358Z,16.17
2023-09-27T21:26:07.933Z,15.50
2023-09-27T21:30:09.650Z,15.50
2023-09-27T21:34:11.460Z,17.43
2023-09-27T21:38:12.666Z,16.83
2023-09-27T21:42:13.882Z,16.23
2023-09-27T21:46:18.965Z,16.17
2023-09-27T21:50:19.962Z,13.20
2023-09-27T21:54:21.204Z,15.47
2023-09-27T21:58:22.444Z,17.27
2023-09-27T22:02:23.508Z,16.00
2023-09-27T22:06:24.600Z,16.27
2023-09-27T22:10:26.562Z,16.60
2023-09-27T22:14:27.705Z,16.97
2023-09-27T22:18:31.436Z,15.90
2023-09-27T22:22:33.225Z,16.47
2023-09-27T22:26:34.478Z,19.13
2023-09-27T22:30:36.440Z,15.33
2023-09-27T22:34:37.551Z,17.47
2023-09-27T22:38:38.676Z,16.37
2023-09-27T22:42:40.338Z,15.43
2023-09-27T22:46:41.574Z,16.90
2023-09-27T22:50:48.352Z,16.40
2023-09-27T22:54:49.551Z,15.73
2023-09-27T22:58:50.785Z,16.67
2023-09-27T23:02:54.028Z,16.37
2023-09-27T23:07:01.543Z,16.00
2023-09-27T23:11:04.920Z,17.17
2023-09-27T23:15:06.959Z,16.27
2023-09-27T23:19:10.100Z,19.93
2023-09-27T23:23:15.934Z,16.80
2023-09-27T23:27:17.344Z,16.17
2023-09-27T23:31:19.260Z,15.67
2023-09-27T23:35:20.480Z,15.43
2023-09-27T23:39:22.647Z,14.73
2023-09-27T23:43:23.661Z,16.40
2023-09-27T23:47:25.175Z,15.87
2023-09-27T23:51:26.488Z,15.13
2023-09-27T23:55:27.754Z,14.70
2023-09-27T23:59:30.737Z,17.27
